Terminal Aerodrome Forecast
Issued by NWS

Home | Current Version | Previous Version | Text Only | Print | Product List | Glossary On
Versions: 1 2 3 4 5 6 7 8 9 10 11 12 13 14 15 16 17 18 19 20 21 22 23 24 25 26
000
FTUS45 KVEF 182320
TAFLAS
TAF
KLAS 182320Z 1900/1924 08007KT P6SM BKN250
     FM190200 20008KT P6SM SCT100 BKN150
     FM190500 21011G17KT P6SM -SHRA BKN050 OVC080
     FM191200 19009KT P6SM -SHRA BKN050 OVC080
     FM191800 19010KT P6SM VCSH BKN050 BKN080=

USA.gov is the U.S. government's official web portal to all federal, state and local government web resources and services.